Time;durP1;ratioP1;P1;durP2;ratioP2;P2;SDS_P1;SDS_P2;PMS_P1;PMS_P2;Temp;Humidity;BMP_temperature;BMP_pressure;BME280_temperature;BME280_humidity;BME280_pressure;Samples;Min_cycle;Max_cycle;Signal;HPM_P1;HPM_P2
2023/03/16 00:00:01;;;;;;;1.10;1.10;;;;;;;10.69;54.39;93783.56;4991182;28;20186;-52
2023/03/16 00:02:27;;;;;;;1.10;1.10;;;;;;;10.68;54.52;93781.97;4990439;28;20586;-58
2023/03/16 00:04:56;;;;;;;1.50;1.40;;;;;;;10.67;54.25;93781.19;4990637;28;20193;-54
2023/03/16 00:07:22;;;;;;;1.20;1.20;;;;;;;10.65;54.34;93785.66;4990639;28;20190;-51
2023/03/16 00:09:49;;;;;;;1.30;1.30;;;;;;;10.61;54.37;93784.38;4990830;28;20220;-56
2023/03/16 00:12:18;;;;;;;1.20;1.20;;;;;;;10.62;54.41;93788.56;4990408;28;20278;-51
2023/03/16 00:14:47;;;;;;;1.30;1.30;;;;;;;10.62;54.48;93795.38;4990153;28;20185;-53
2023/03/16 00:17:18;;;;;;;1.27;1.27;;;;;;;10.59;54.64;93790.63;4990200;28;20193;-55
2023/03/16 00:19:46;;;;;;;1.20;1.20;;;;;;;10.58;54.47;93799.22;4988186;28;20193;-53
2023/03/16 00:22:15;;;;;;;1.27;1.27;;;;;;;10.52;54.59;93791.25;4990294;28;20295;-58
2023/03/16 00:24:43;;;;;;;1.17;1.17;;;;;;;10.51;54.37;93793.97;4989929;28;20328;-52
2023/03/16 00:27:13;;;;;;;1.30;1.20;;;;;;;10.51;54.54;93802.44;4990144;28;20585;-52
2023/03/16 00:29:45;;;;;;;1.20;1.20;;;;;;;10.48;54.48;93800.19;4989619;28;20279;-58
2023/03/16 00:32:16;;;;;;;1.27;1.27;;;;;;;10.47;54.76;93806.25;4990060;28;20197;-50
2023/03/16 00:34:44;;;;;;;1.20;1.20;;;;;;;10.43;54.68;93799.88;4989757;28;20228;-49
2023/03/16 00:37:14;;;;;;;1.67;1.67;;;;;;;10.42;54.63;93805.94;4990137;28;20192;-57
2023/03/16 00:39:42;;;;;;;1.30;1.20;;;;;;;10.43;54.69;93809.28;4989742;28;20528;-49
2023/03/16 00:42:11;;;;;;;1.20;1.20;;;;;;;10.39;54.67;93808.00;4989920;28;20332;-52
2023/03/16 00:44:38;;;;;;;1.23;1.23;;;;;;;10.39;54.82;93810.56;4988533;28;20189;-52
2023/03/16 00:47:06;;;;;;;1.30;1.30;;;;;;;10.37;54.93;93815.06;4989992;28;20240;-51
2023/03/16 00:49:33;;;;;;;1.20;1.20;;;;;;;10.35;55.02;93819.50;4989908;28;20395;-55
2023/03/16 00:52:01;;;;;;;1.47;1.37;;;;;;;10.33;54.90;93827.34;4990080;28;20193;-55
2023/03/16 00:54:28;;;;;;;1.40;1.30;;;;;;;10.29;55.00;93818.38;4989998;28;20677;-48
2023/03/16 00:56:56;;;;;;;1.40;1.30;;;;;;;10.28;54.98;93814.25;4989529;28;20705;-53
2023/03/16 00:59:25;;;;;;;1.20;1.20;;;;;;;10.26;54.98;93819.50;4989272;28;20208;-54
2023/03/16 01:01:52;;;;;;;1.40;1.30;;;;;;;10.24;55.09;93821.41;4985197;28;20193;-51
2023/03/16 01:04:19;;;;;;;1.20;1.20;;;;;;;10.22;55.09;93818.16;4970383;28;20276;-53
2023/03/16 01:06:46;;;;;;;1.40;1.30;;;;;;;10.20;55.23;93821.84;4970842;28;20277;-53
2023/03/16 01:09:13;;;;;;;1.30;1.30;;;;;;;10.19;55.33;93817.69;4968556;28;20193;-52
2023/03/16 01:11:41;;;;;;;1.23;1.23;;;;;;;10.17;55.24;93822.16;4987601;28;20181;-55
2023/03/16 01:14:10;;;;;;;1.50;1.40;;;;;;;10.15;55.27;93821.53;4989722;28;20275;-50
2023/03/16 01:16:37;;;;;;;1.17;1.17;;;;;;;10.12;55.55;93817.53;4989436;28;20196;-50
2023/03/16 01:19:04;;;;;;;1.40;1.40;;;;;;;10.13;55.39;93818.31;4989983;28;20283;-51
2023/03/16 01:21:32;;;;;;;1.10;1.10;;;;;;;10.10;55.46;93827.06;4989162;28;20677;-53
2023/03/16 01:23:59;;;;;;;1.50;1.33;;;;;;;10.08;55.66;93829.00;4989847;28;20587;-50
2023/03/16 01:26:26;;;;;;;1.07;1.07;;;;;;;10.02;55.54;93814.31;4989564;28;20794;-48
2023/03/16 01:28:54;;;;;;;1.20;1.20;;;;;;;10.04;55.69;93827.72;4989218;28;20197;-51
2023/03/16 01:31:22;;;;;;;1.10;1.10;;;;;;;10.00;55.95;93827.22;4989644;28;20248;-55
2023/03/16 01:33:50;;;;;;;1.20;1.20;;;;;;;10.00;55.73;93826.44;4991632;28;20633;-48
2023/03/16 01:36:19;;;;;;;1.20;1.20;;;;;;;9.98;55.93;93825.78;4993072;28;20578;-52
2023/03/16 01:38:46;;;;;;;1.20;1.20;;;;;;;9.94;55.96;93827.84;4993503;28;20197;-51
2023/03/16 01:41:13;;;;;;;1.43;1.37;;;;;;;9.94;55.70;93834.72;4993313;28;20193;-56
2023/03/16 01:43:42;;;;;;;1.43;1.37;;;;;;;9.88;55.95;93828.47;4992680;28;20661;-54
2023/03/16 01:46:18;;;;;;;1.10;1.10;;;;;;;9.90;56.00;93841.88;4993374;28;20255;-54
2023/03/16 01:48:54;;;;;;;1.17;1.17;;;;;;;9.88;56.17;93837.88;4993454;28;20247;-60
2023/03/16 01:51:24;;;;;;;1.50;1.40;;;;;;;9.86;56.12;93837.25;4992803;28;20213;-55
2023/03/16 01:53:55;;;;;;;1.37;1.10;;;;;;;9.84;56.02;93847.59;4992779;28;20193;-56
2023/03/16 01:56:26;;;;;;;1.23;1.20;;;;;;;9.82;56.24;93846.97;4992133;28;20271;-50
2023/03/16 01:58:57;;;;;;;1.07;1.07;;;;;;;9.80;56.11;93842.00;4992727;28;20300;-57
2023/03/16 02:01:25;;;;;;;1.30;1.30;;;;;;;9.78;56.29;93848.22;4992861;28;20192;-51
2023/03/16 02:03:57;;;;;;;1.20;1.20;;;;;;;9.77;56.29;93847.41;4992619;28;20964;-48
2023/03/16 02:06:24;;;;;;;1.13;1.13;;;;;;;9.77;56.15;93861.94;4993081;28;20189;-50
2023/03/16 02:08:54;;;;;;;1.10;1.10;;;;;;;9.75;56.24;93858.72;4992677;28;20200;-56
2023/03/16 02:11:21;;;;;;;1.10;1.10;;;;;;;9.73;56.21;93864.00;4993030;28;20221;-56
2023/03/16 02:13:48;;;;;;;1.17;1.17;;;;;;;9.71;56.37;93855.69;4992662;28;20276;-48
2023/03/16 02:16:18;;;;;;;1.20;1.20;;;;;;;9.68;56.24;93862.88;4992567;28;20223;-53
2023/03/16 02:18:45;;;;;;;2.20;1.30;;;;;;;9.68;56.34;93868.75;4993182;28;20568;-51
2023/03/16 02:21:19;;;;;;;1.20;1.20;;;;;;;9.66;56.53;93868.09;4992384;28;20692;-54
2023/03/16 02:23:46;;;;;;;1.43;1.33;;;;;;;9.63;56.68;93881.19;4992491;28;20218;-51
2023/03/16 02:26:22;;;;;;;1.20;1.20;;;;;;;9.61;56.46;93872.88;4992241;28;20661;-48
2023/03/16 02:29:01;;;;;;;1.20;1.20;;;;;;;9.59;56.57;93879.91;4992200;28;20201;-47
2023/03/16 02:31:30;;;;;;;1.10;1.10;;;;;;;9.58;56.66;93878.28;4992155;28;20213;-54
2023/03/16 02:33:58;;;;;;;1.10;1.10;;;;;;;9.55;56.67;93881.16;4992395;28;20204;-47
2023/03/16 02:36:26;;;;;;;1.17;1.17;;;;;;;9.53;56.83;93873.63;4992340;28;20195;-50
2023/03/16 02:38:53;;;;;;;1.20;1.20;;;;;;;9.54;56.89;93890.56;4992059;28;20190;-47
2023/03/16 02:41:21;;;;;;;1.10;1.10;;;;;;;9.53;56.80;93896.59;4991974;28;20249;-53
2023/03/16 02:43:52;;;;;;;1.20;1.20;;;;;;;9.52;56.92;93891.66;4991246;28;20204;-50
2023/03/16 02:46:21;;;;;;;1.23;1.23;;;;;;;9.50;56.84;93889.25;4991808;28;20201;-50
2023/03/16 02:48:56;;;;;;;1.10;1.10;;;;;;;9.48;56.90;93891.16;4991942;28;20200;-54
2023/03/16 02:51:23;;;;;;;1.20;1.20;;;;;;;9.47;57.07;93892.09;4983741;28;20209;-56
2023/03/16 02:53:50;;;;;;;1.20;1.20;;;;;;;9.45;56.98;93888.09;4991874;28;20637;-51
2023/03/16 02:56:17;;;;;;;1.20;1.20;;;;;;;9.45;57.38;93893.19;4991858;28;20276;-57
2023/03/16 02:58:43;;;;;;;1.20;1.20;;;;;;;9.43;57.20;93898.47;4991832;28;20680;-52
2023/03/16 03:01:10;;;;;;;1.40;1.40;;;;;;;9.42;57.22;93898.63;4991486;28;20569;-54
2023/03/16 03:03:37;;;;;;;1.37;1.30;;;;;;;9.37;57.39;93888.84;4991641;28;20197;-51
2023/03/16 03:06:06;;;;;;;1.23;1.23;;;;;;;9.38;57.43;93893.00;4992209;28;20269;-60
2023/03/16 03:08:33;;;;;;;1.30;1.30;;;;;;;9.37;57.52;93895.69;4991480;28;20186;-56
2023/03/16 03:11:00;;;;;;;1.10;1.10;;;;;;;9.35;57.56;93900.16;4991563;28;20243;-54
2023/03/16 03:13:26;;;;;;;1.30;1.30;;;;;;;9.34;57.63;93912.13;4991312;28;20212;-54
2023/03/16 03:15:53;;;;;;;1.20;1.07;;;;;;;9.32;57.66;93913.19;4991567;28;20657;-50
2023/03/16 03:18:20;;;;;;;1.10;1.10;;;;;;;9.31;57.74;93917.50;4991437;28;20208;-55
2023/03/16 03:20:47;;;;;;;1.10;1.10;;;;;;;9.29;57.59;93920.22;4991731;28;20188;-58
2023/03/16 03:23:15;;;;;;;1.03;1.03;;;;;;;9.28;57.58;93928.00;4991168;28;20248;-53
2023/03/16 03:25:44;;;;;;;1.30;1.30;;;;;;;9.27;57.72;93914.44;4991612;28;20281;-56
2023/03/16 03:28:11;;;;;;;1.20;1.20;;;;;;;9.26;57.48;93925.59;4990764;28;20232;-55
2023/03/16 03:30:38;;;;;;;7.50;1.20;;;;;;;9.26;57.71;93929.91;4991506;28;20320;-52
2023/03/16 03:33:05;;;;;;;1.10;1.10;;;;;;;9.25;57.79;93934.22;4991034;28;20193;-54
2023/03/16 03:35:32;;;;;;;1.10;1.10;;;;;;;9.24;57.66;93930.06;4991314;28;20193;-51
2023/03/16 03:37:58;;;;;;;1.30;1.30;;;;;;;9.22;57.66;93929.41;4991296;28;20277;-49
2023/03/16 03:40:26;;;;;;;1.20;1.20;;;;;;;9.21;57.85;93932.91;4990936;28;20662;-52
2023/03/16 03:42:53;;;;;;;1.13;1.13;;;;;;;9.18;57.93;93930.66;4990663;28;20197;-51
2023/03/16 03:45:20;;;;;;;1.10;1.10;;;;;;;9.17;58.00;93936.72;4990899;28;20207;-49
2023/03/16 03:47:47;;;;;;;1.13;1.13;;;;;;;9.16;58.08;93944.50;4991087;28;20185;-48
2023/03/16 03:50:14;;;;;;;1.10;1.10;;;;;;;9.15;57.86;93943.69;4990636;28;20221;-49
2023/03/16 03:52:41;;;;;;;1.40;1.30;;;;;;;9.14;58.29;93949.75;4990752;28;20704;-50
2023/03/16 03:55:09;;;;;;;1.20;1.20;;;;;;;9.10;58.08;93945.88;4990616;28;20283;-50
2023/03/16 03:57:38;;;;;;;1.20;1.20;;;;;;;9.10;58.19;93958.63;4990581;28;20221;-51
2023/03/16 04:00:08;;;;;;;1.07;1.07;;;;;;;9.08;57.85;93955.44;4990296;28;20200;-47
2023/03/16 04:02:35;;;;;;;1.10;1.10;;;;;;;9.08;58.05;93963.09;4991108;28;20193;-50
2023/03/16 04:05:02;;;;;;;1.20;1.20;;;;;;;9.07;58.04;93974.25;4990091;28;20201;-50
2023/03/16 04:07:29;;;;;;;1.10;1.10;;;;;;;9.04;58.19;93962.59;4991298;28;20271;-47
2023/03/16 04:09:56;;;;;;;1.10;1.10;;;;;;;9.04;58.00;93972.78;4990905;28;20193;-51
2023/03/16 04:12:23;;;;;;;1.50;1.40;;;;;;;9.00;58.14;93963.81;4991058;28;20189;-54
2023/03/16 04:14:51;;;;;;;1.20;1.20;;;;;;;9.01;57.86;93965.41;4989888;28;20705;-50
2023/03/16 04:17:18;;;;;;;1.20;1.20;;;;;;;9.00;57.93;93958.72;4990614;28;20185;-53
2023/03/16 04:19:45;;;;;;;1.10;1.10;;;;;;;9.00;57.95;93961.28;4990815;28;20189;-51
2023/03/16 04:22:12;;;;;;;1.17;1.17;;;;;;;8.99;58.16;93959.66;4990131;28;20197;-49
2023/03/16 04:24:39;;;;;;;1.20;1.20;;;;;;;8.98;58.07;93960.63;4990162;28;20274;-47
2023/03/16 04:27:06;;;;;;;1.20;1.20;;;;;;;9.00;58.24;93970.66;4990010;28;20200;-51
2023/03/16 04:29:32;;;;;;;1.20;1.20;;;;;;;8.97;58.24;93974.31;4990301;28;20237;-50
2023/03/16 04:32:01;;;;;;;1.10;1.10;;;;;;;8.97;58.12;93979.41;4990160;28;20236;-51
2023/03/16 04:34:27;;;;;;;1.30;1.30;;;;;;;8.96;58.25;93989.75;4990246;28;20656;-47
2023/03/16 04:36:54;;;;;;;1.23;1.20;;;;;;;8.96;58.28;93990.56;4989759;28;20196;-48
2023/03/16 04:39:21;;;;;;;1.30;1.27;;;;;;;8.95;58.23;93996.59;4990221;28;20201;-53
2023/03/16 04:41:49;;;;;;;1.20;1.20;;;;;;;8.96;58.34;94000.75;4990116;28;20193;-56
2023/03/16 04:44:16;;;;;;;1.20;1.20;;;;;;;8.95;58.24;94004.25;4990198;28;20200;-54
2023/03/16 04:46:43;;;;;;;1.27;1.27;;;;;;;8.95;58.27;94006.00;4990007;28;20201;-60
2023/03/16 04:49:11;;;;;;;1.10;1.10;;;;;;;8.95;58.44;94000.91;4989746;28;20200;-54
2023/03/16 04:51:39;;;;;;;1.10;1.10;;;;;;;8.96;58.30;94008.41;4989480;28;20669;-49
2023/03/16 04:54:06;;;;;;;1.47;1.37;;;;;;;8.95;58.45;94017.00;4990023;28;20244;-49
2023/03/16 04:56:34;;;;;;;1.40;1.30;;;;;;;8.95;58.44;94011.91;4989773;28;20611;-56
2023/03/16 04:59:00;;;;;;;1.27;1.27;;;;;;;8.97;58.34;94024.50;4989168;28;20280;-54
2023/03/16 05:01:27;;;;;;;1.17;1.17;;;;;;;8.99;58.39;94028.53;4989857;28;20213;-47
2023/03/16 05:03:54;;;;;;;1.20;1.20;;;;;;;8.99;58.28;94025.97;4989716;28;20297;-58
2023/03/16 05:06:22;;;;;;;1.37;1.30;;;;;;;8.91;58.22;94008.03;4988504;28;20669;-54
2023/03/16 05:08:49;;;;;;;1.27;1.17;;;;;;;9.04;58.31;94030.63;4988888;28;20192;-52
2023/03/16 05:11:16;;;;;;;1.57;1.50;;;;;;;9.03;58.26;94032.41;4989610;28;20228;-51
2023/03/16 05:13:43;;;;;;;1.30;1.30;;;;;;;9.04;58.27;94033.19;4989030;28;20189;-54
2023/03/16 05:16:09;;;;;;;1.10;1.10;;;;;;;9.05;58.23;94027.94;4988911;28;20202;-54
2023/03/16 05:18:36;;;;;;;1.50;1.40;;;;;;;9.07;58.20;94034.63;4988987;28;20597;-50
2023/03/16 05:21:03;;;;;;;1.50;1.40;;;;;;;9.09;58.14;94041.22;4989073;28;20235;-53
2023/03/16 05:23:31;;;;;;;1.70;1.30;;;;;;;9.11;58.00;94043.59;4989927;28;20559;-54
2023/03/16 05:25:59;;;;;;;1.40;1.40;;;;;;;9.12;58.16;94046.03;4989482;28;20359;-54
2023/03/16 05:28:27;;;;;;;1.80;1.70;;;;;;;9.12;58.11;94040.94;4989527;28;20188;-50
2023/03/16 05:30:53;;;;;;;1.40;1.40;;;;;;;9.15;57.90;94055.13;4988839;28;20581;-47
2023/03/16 05:33:20;;;;;;;1.50;1.50;;;;;;;9.14;58.05;94054.31;4989374;28;20212;-50
2023/03/16 05:35:47;;;;;;;1.40;1.40;;;;;;;9.15;58.05;94057.66;4989299;28;20220;-49
2023/03/16 05:38:14;;;;;;;1.30;1.30;;;;;;;9.15;58.07;94061.03;4989011;28;20673;-55
2023/03/16 05:40:42;;;;;;;1.50;1.40;;;;;;;9.16;58.29;94061.84;4989393;28;20192;-54
2023/03/16 05:43:09;;;;;;;1.70;1.60;;;;;;;9.15;57.92;94065.31;4989507;28;20624;-52
2023/03/16 05:45:36;;;;;;;2.10;1.30;;;;;;;9.66;90.00;94061.31;4989126;28;20200;-47
2023/03/16 05:48:04;;;;;;;1.57;1.50;;;;;;;10.49;93.12;94064.25;4989235;28;20278;-50
2023/03/16 05:50:31;;;;;;;4.40;1.40;;;;;;;11.27;89.41;94069.19;4988780;28;20185;-53
2023/03/16 05:52:58;;;;;;;3.47;1.40;;;;;;;11.97;85.72;94066.22;4989340;28;20189;-46
2023/03/16 05:55:24;;;;;;;2.87;1.83;;;;;;;12.58;84.86;94069.94;4988905;28;20204;-46
2023/03/16 05:57:53;;;;;;;4.23;1.57;;;;;;;13.04;82.72;94075.22;4989277;28;20648;-46
2023/03/16 06:00:21;;;;;;;1.87;1.53;;;;;;;13.13;78.33;94076.78;4988823;28;20621;-49
2023/03/16 06:02:51;;;;;;;5.27;1.73;;;;;;;13.06;72.08;94084.34;4989282;28;20201;-47
2023/03/16 06:05:20;;;;;;;2.40;1.47;;;;;;;12.89;68.21;94090.50;4989121;28;20692;-49
2023/03/16 06:07:48;;;;;;;4.30;1.60;;;;;;;12.73;67.03;94090.56;4989024;28;20269;-47
2023/03/16 06:10:16;;;;;;;3.63;1.73;;;;;;;12.58;66.62;94087.09;4989080;28;20573;-47
2023/03/16 06:12:43;;;;;;;1.90;1.70;;;;;;;12.43;66.22;94092.88;4989132;28;20322;-48
2023/03/16 06:15:12;;;;;;;1.63;1.53;;;;;;;12.29;65.55;94091.00;4988756;28;20204;-49
2023/03/16 06:17:40;;;;;;;4.13;1.80;;;;;;;12.13;65.15;94096.13;4989554;28;20192;-53
2023/03/16 06:20:10;;;;;;;1.80;1.70;;;;;;;12.03;65.22;94106.56;4992810;28;20189;-47
2023/03/16 06:22:37;;;;;;;1.70;1.60;;;;;;;11.90;64.79;94109.59;4992956;28;20283;-50
2023/03/16 06:25:04;;;;;;;2.93;1.80;;;;;;;11.80;64.49;94112.28;4992295;28;20610;-47
2023/03/16 06:27:31;;;;;;;2.30;1.50;;;;;;;11.69;64.30;94111.78;4992105;28;20201;-56
2023/03/16 06:29:58;;;;;;;2.13;1.80;;;;;;;11.64;63.95;94119.16;4983506;28;20196;-47
2023/03/16 06:32:26;;;;;;;2.70;1.90;;;;;;;11.49;63.38;94117.22;4991136;28;20216;-49
2023/03/16 06:34:53;;;;;;;2.73;1.70;;;;;;;11.46;63.14;94127.78;4990941;28;20204;-48
2023/03/16 06:37:20;;;;;;;2.40;2.20;;;;;;;11.37;62.87;94131.28;4989426;28;20625;-47
2023/03/16 06:39:47;;;;;;;3.10;2.20;;;;;;;11.29;62.44;94134.59;4991129;28;20291;-46
2023/03/16 06:42:14;;;;;;;2.13;1.93;;;;;;;11.21;62.24;94138.91;4990688;28;20197;-49
2023/03/16 06:44:41;;;;;;;2.03;1.90;;;;;;;11.12;61.83;94142.38;4991027;28;20669;-49
2023/03/16 06:47:09;;;;;;;3.23;2.03;;;;;;;11.03;61.71;94144.91;4990609;28;20208;-53
2023/03/16 06:49:37;;;;;;;2.60;2.03;;;;;;;10.93;61.43;94144.25;4991036;28;20280;-55
2023/03/16 06:52:04;;;;;;;2.37;1.90;;;;;;;10.88;61.48;94149.03;4991250;28;20228;-48
2023/03/16 06:54:33;;;;;;;1.73;1.63;;;;;;;10.82;61.10;94147.06;4990620;28;20201;-51
2023/03/16 06:57:00;;;;;;;1.80;1.70;;;;;;;10.77;61.04;94160.31;4990556;28;20338;-49
2023/03/16 06:59:27;;;;;;;2.33;2.10;;;;;;;10.74;60.62;94163.16;4990396;28;20188;-48
2023/03/16 07:01:54;;;;;;;1.93;1.70;;;;;;;10.71;60.49;94160.91;4990820;28;20200;-47
2023/03/16 07:04:21;;;;;;;2.10;1.90;;;;;;;10.69;60.41;94164.56;4990373;28;20208;-47
2023/03/16 07:06:50;;;;;;;2.00;1.87;;;;;;;10.66;60.09;94170.78;4990646;28;20691;-53
2023/03/16 07:09:17;;;;;;;2.40;1.67;;;;;;;10.66;60.08;94175.88;4990790;28;20243;-47
2023/03/16 07:11:44;;;;;;;1.90;1.80;;;;;;;10.65;59.83;94174.28;4990339;28;20628;-48
2023/03/16 07:14:11;;;;;;;1.97;1.87;;;;;;;10.64;59.80;94174.44;4990773;28;20189;-47
2023/03/16 07:16:38;;;;;;;2.00;1.80;;;;;;;10.59;59.55;94174.09;4990807;28;20259;-53
2023/03/16 07:19:05;;;;;;;2.57;1.70;;;;;;;10.63;59.64;94180.53;4991139;28;20208;-51
2023/03/16 07:21:38;;;;;;;1.80;1.70;;;;;;;10.59;59.39;94181.78;4991351;28;20201;-49
2023/03/16 07:24:08;;;;;;;3.37;1.87;;;;;;;10.65;59.29;94184.53;4990235;28;20259;-52
2023/03/16 07:26:35;;;;;;;1.60;1.50;;;;;;;10.58;59.40;94175.88;4991051;28;20197;-50
2023/03/16 07:29:03;;;;;;;2.30;2.10;;;;;;;10.66;59.15;94182.75;4990400;28;20196;-48
2023/03/16 07:31:31;;;;;;;3.03;1.90;;;;;;;10.68;58.98;94191.91;4991245;28;20252;-47
2023/03/16 07:33:58;;;;;;;1.93;1.73;;;;;;;10.72;58.85;94190.66;4990230;28;20283;-55
2023/03/16 07:36:25;;;;;;;2.03;1.87;;;;;;;10.75;58.59;94189.53;4989564;28;20260;-52
2023/03/16 07:38:52;;;;;;;1.90;1.80;;;;;;;10.78;58.52;94191.78;4990713;28;20310;-53
2023/03/16 07:41:21;;;;;;;1.97;1.77;;;;;;;10.80;58.34;94190.69;4989871;28;20201;-52
2023/03/16 07:43:48;;;;;;;1.77;1.67;;;;;;;10.83;58.19;94188.78;4990006;28;20196;-52
2023/03/16 07:46:15;;;;;;;2.03;1.70;;;;;;;10.84;58.19;94191.19;4990392;28;20197;-53
2023/03/16 07:48:44;;;;;;;1.80;1.70;;;;;;;10.93;57.89;94207.41;4990702;28;20235;-52
2023/03/16 07:51:11;;;;;;;1.83;1.73;;;;;;;10.98;57.77;94205.97;4989950;28;20463;-57
2023/03/16 07:53:42;;;;;;;1.67;1.57;;;;;;;11.04;57.68;94209.69;4989960;28;20268;-54
2023/03/16 07:56:10;;;;;;;1.90;1.80;;;;;;;11.05;57.54;94214.66;4989789;28;20243;-52
2023/03/16 07:58:40;;;;;;;3.17;1.97;;;;;;;11.10;57.31;94211.66;4990150;28;20192;-53
2023/03/16 08:01:08;;;;;;;2.67;2.00;;;;;;;11.15;57.55;94211.97;4989322;28;20279;-56
2023/03/16 08:03:35;;;;;;;2.07;1.90;;;;;;;11.01;57.27;94182.66;4990527;28;20264;-53
2023/03/16 08:06:03;;;;;;;1.80;1.70;;;;;;;11.25;57.11;94211.84;4990083;28;20582;-54
2023/03/16 08:08:35;;;;;;;2.20;1.80;;;;;;;11.26;56.75;94209.13;4989964;28;20185;-50
2023/03/16 08:11:02;;;;;;;2.13;1.90;;;;;;;11.36;56.75;94216.72;4990099;28;20224;-54
2023/03/16 08:13:29;;;;;;;1.57;1.47;;;;;;;11.41;56.53;94211.13;4989457;28;20229;-52
2023/03/16 08:16:00;;;;;;;1.90;1.67;;;;;;;11.49;56.46;94214.53;4989734;28;20197;-49
2023/03/16 08:18:28;;;;;;;2.00;1.80;;;;;;;11.55;56.29;94223.34;4989735;28;20894;-53
2023/03/16 08:20:55;;;;;;;1.80;1.70;;;;;;;11.60;56.30;94228.78;4987012;28;20197;-53
2023/03/16 08:23:23;;;;;;;2.23;2.03;;;;;;;11.67;56.10;94226.41;4989790;28;20735;-50
2023/03/16 08:25:52;;;;;;;1.63;1.53;;;;;;;11.70;56.18;94229.47;4988223;28;20279;-52
2023/03/16 08:28:20;;;;;;;1.73;1.53;;;;;;;11.75;55.67;94236.69;4989664;28;20197;-50
2023/03/16 08:30:51;;;;;;;1.90;1.80;;;;;;;11.80;55.76;94234.47;4989723;28;20208;-54
2023/03/16 08:33:20;;;;;;;1.90;1.77;;;;;;;11.84;55.37;94235.78;4988074;28;20240;-55
2023/03/16 08:35:48;;;;;;;1.40;1.40;;;;;;;11.87;55.30;94235.44;4987033;28;20189;-55
2023/03/16 08:38:15;;;;;;;2.00;1.87;;;;;;;11.97;55.51;94243.81;4989554;28;20201;-52
2023/03/16 08:40:47;;;;;;;1.80;1.70;;;;;;;12.08;55.24;94239.34;4989058;28;20193;-58
2023/03/16 08:43:14;;;;;;;1.73;1.63;;;;;;;12.17;54.89;94240.94;4988957;28;20673;-54
2023/03/16 08:45:41;;;;;;;1.83;1.73;;;;;;;12.25;54.68;94236.63;4989067;28;20597;-57
2023/03/16 08:48:11;;;;;;;2.07;1.70;;;;;;;12.32;54.36;94243.72;4989049;28;20189;-55
2023/03/16 08:50:42;;;;;;;1.60;1.50;;;;;;;12.39;54.42;94248.03;4989659;28;20189;-55
2023/03/16 08:53:09;;;;;;;4.80;1.70;;;;;;;12.44;54.55;94248.38;4988492;28;20311;-55
2023/03/16 08:55:36;;;;;;;1.73;1.63;;;;;;;12.47;54.43;94250.59;4988656;28;20232;-55
2023/03/16 08:58:04;;;;;;;1.87;1.70;;;;;;;12.47;54.10;94237.75;4985239;28;20278;-55
2023/03/16 09:00:30;;;;;;;1.70;1.60;;;;;;;12.53;54.08;94244.03;4988310;28;20197;-57
2023/03/16 09:02:57;;;;;;;1.70;1.60;;;;;;;12.62;53.97;94255.09;4986440;28;20204;-56
2023/03/16 09:05:24;;;;;;;1.70;1.60;;;;;;;12.64;54.01;94243.69;4988661;28;20228;-56
2023/03/16 09:07:53;;;;;;;1.70;1.60;;;;;;;12.67;53.89;94248.50;4988639;28;20272;-51
2023/03/16 09:10:21;;;;;;;1.73;1.63;;;;;;;12.70;53.74;94252.53;4987855;28;20235;-51
2023/03/16 09:12:50;;;;;;;1.50;1.50;;;;;;;12.71;53.63;94252.34;4986505;28;20232;-53
2023/03/16 09:15:18;;;;;;;1.80;1.70;;;;;;;12.73;53.69;94254.75;4986208;28;20192;-55
2023/03/16 09:17:46;;;;;;;2.10;1.90;;;;;;;12.72;53.40;94258.28;4988269;28;20181;-53
2023/03/16 09:20:20;;;;;;;1.70;1.60;;;;;;;12.69;53.72;94263.72;4988588;28;20200;-49
2023/03/16 09:22:47;;;;;;;2.10;2.00;;;;;;;12.66;53.55;94264.06;4988365;28;20240;-49
2023/03/16 09:25:15;;;;;;;2.13;1.70;;;;;;;12.62;53.33;94267.91;4988433;28;20193;-50
2023/03/16 09:27:43;;;;;;;1.80;1.70;;;;;;;12.58;53.41;94266.63;4988406;28;20280;-52
2023/03/16 09:30:12;;;;;;;1.80;1.70;;;;;;;12.55;53.75;94267.75;4988572;28;20193;-48
2023/03/16 09:32:39;;;;;;;1.73;1.63;;;;;;;12.53;53.51;94267.91;4988664;28;20667;-54
2023/03/16 09:35:06;;;;;;;2.10;1.90;;;;;;;12.51;53.75;94262.13;4987600;28;20666;-48
2023/03/16 09:37:33;;;;;;;1.67;1.57;;;;;;;12.48;53.73;94269.38;4988522;28;20201;-53
2023/03/16 09:40:00;;;;;;;1.60;1.50;;;;;;;12.44;53.58;94268.88;4988929;28;20193;-51
2023/03/16 09:42:35;;;;;;;1.90;1.80;;;;;;;12.39;53.54;94273.69;4988234;28;20224;-47
2023/03/16 09:45:20;;;;;;;1.60;1.50;;;;;;;12.31;53.43;94263.41;4988315;28;20608;-52
2023/03/16 09:47:50;;;;;;;1.80;1.70;;;;;;;12.30;53.41;94270.31;4988612;28;20200;-49
2023/03/16 09:50:25;;;;;;;1.70;1.60;;;;;;;12.27;53.53;94270.63;4987823;28;20193;-50
2023/03/16 09:52:59;;;;;;;1.67;1.57;;;;;;;12.22;53.52;94272.88;4989130;28;20280;-46
2023/03/16 09:55:30;;;;;;;1.87;1.77;;;;;;;12.20;53.52;94272.19;4991963;28;20201;-51
2023/03/16 09:58:00;;;;;;;3.13;1.90;;;;;;;12.19;53.30;94272.38;4992551;28;20193;-49
2023/03/16 10:00:30;;;;;;;1.73;1.50;;;;;;;12.17;53.28;94269.16;4991400;28;20201;-47
2023/03/16 10:03:10;;;;;;;1.80;1.70;;;;;;;12.17;53.47;94267.38;4991933;28;20208;-50
2023/03/16 10:05:38;;;;;;;1.83;1.73;;;;;;;12.15;53.45;94271.88;4992026;28;20680;-54
2023/03/16 10:08:17;;;;;;;1.93;1.73;;;;;;;12.15;53.51;94279.56;4991238;28;20280;-49
2023/03/16 10:10:55;;;;;;;1.80;1.70;;;;;;;12.16;53.28;94281.16;4992569;28;20583;-49
2023/03/16 10:13:34;;;;;;;1.60;1.50;;;;;;;12.17;53.49;94281.97;4988397;28;20232;-51
2023/03/16 10:16:06;;;;;;;1.90;1.80;;;;;;;12.19;53.28;94277.50;4989628;28;20212;-46
2023/03/16 10:18:40;;;;;;;1.80;1.70;;;;;;;12.18;53.52;94275.91;4991295;28;20197;-52
2023/03/16 10:21:13;;;;;;;2.10;1.90;;;;;;;12.18;53.47;94281.81;4991276;28;20185;-46
2023/03/16 10:23:42;;;;;;;2.93;2.00;;;;;;;12.20;53.51;94277.34;4991869;28;20300;-48
2023/03/16 10:26:13;;;;;;;2.43;2.10;;;;;;;12.20;53.47;94271.41;4991505;28;20534;-54
2023/03/16 10:28:44;;;;;;;2.00;1.90;;;;;;;12.18;53.46;94276.69;4989618;28;20652;-50
2023/03/16 10:31:12;;;;;;;2.00;1.90;;;;;;;12.17;53.41;94280.19;4991346;28;20208;-53
2023/03/16 10:33:39;;;;;;;2.20;1.70;;;;;;;12.18;53.34;94276.69;4992211;28;20221;-51
2023/03/16 10:36:14;;;;;;;1.90;1.80;;;;;;;12.20;53.46;94279.09;4991436;28;20193;-53
2023/03/16 10:38:45;;;;;;;2.30;2.10;;;;;;;12.20;53.28;94277.34;4991332;28;20271;-49
2023/03/16 10:41:22;;;;;;;2.00;1.90;;;;;;;12.23;53.40;94271.09;4991701;28;20267;-47
2023/03/16 10:43:54;;;;;;;2.27;1.80;;;;;;;12.23;53.19;94266.78;4990635;28;20196;-46
2023/03/16 10:46:22;;;;;;;2.03;1.90;;;;;;;12.24;53.41;94272.69;4990189;28;20193;-51
2023/03/16 10:48:58;;;;;;;1.60;1.50;;;;;;;12.26;53.15;94270.75;4991385;28;20204;-48
2023/03/16 10:51:28;;;;;;;1.83;1.73;;;;;;;12.24;53.00;94260.69;4991286;28;20291;-53
2023/03/16 10:54:00;;;;;;;1.70;1.60;;;;;;;12.25;52.90;94271.72;4990716;28;20252;-49
2023/03/16 10:56:34;;;;;;;1.77;1.63;;;;;;;12.27;52.66;94268.06;4990773;28;20229;-52
2023/03/16 10:59:12;;;;;;;1.93;1.83;;;;;;;12.32;52.81;94274.47;4991188;28;20251;-49
2023/03/16 11:01:39;;;;;;;1.90;1.70;;;;;;;12.38;52.65;94273.81;4990755;28;20197;-48
2023/03/16 11:04:15;;;;;;;1.70;1.60;;;;;;;12.46;53.82;94272.06;4988742;28;20197;-48
2023/03/16 11:06:49;;;;;;;1.77;1.67;;;;;;;12.49;54.13;94276.91;4990687;28;20188;-53
2023/03/16 11:09:20;;;;;;;1.67;1.57;;;;;;;12.50;53.87;94272.56;4990298;28;20197;-49
2023/03/16 11:11:49;;;;;;;1.93;1.83;;;;;;;12.49;53.93;94268.41;4988720;28;20661;-52
2023/03/16 11:14:21;;;;;;;2.07;1.87;;;;;;;12.46;53.70;94279.78;4987819;28;20213;-50
2023/03/16 11:16:52;;;;;;;1.93;1.83;;;;;;;12.45;53.54;94277.38;4989091;28;20226;-54
2023/03/16 11:19:23;;;;;;;1.97;1.83;;;;;;;12.42;53.18;94275.13;4990497;28;20185;-52
2023/03/16 11:21:54;;;;;;;3.40;1.97;;;;;;;12.40;53.01;94272.72;4990251;28;20200;-51
2023/03/16 11:24:26;;;;;;;1.97;1.87;;;;;;;12.37;53.03;94275.59;4985679;28;20193;-55
2023/03/16 11:26:58;;;;;;;1.80;1.70;;;;;;;12.36;52.89;94283.47;4988128;28;20189;-53
2023/03/16 11:29:32;;;;;;;2.03;1.93;;;;;;;12.31;52.68;94268.56;4990431;28;20205;-54
2023/03/16 11:32:04;;;;;;;2.70;2.00;;;;;;;12.29;52.46;94278.16;4990576;28;20226;-47
2023/03/16 11:34:36;;;;;;;2.10;2.00;;;;;;;12.28;52.54;94279.91;4990744;28;20295;-49
2023/03/16 11:37:12;;;;;;;1.87;1.77;;;;;;;12.27;52.32;94267.25;4983034;28;20684;-53
2023/03/16 11:39:51;;;;;;;2.10;2.00;;;;;;;12.27;52.20;94273.19;4989978;28;20306;-55
2023/03/16 11:42:30;;;;;;;2.73;2.00;;;;;;;12.25;52.05;94269.16;4990884;28;20201;-55